Time;durP1;ratioP1;P1;durP2;ratioP2;P2;SDS_P1;SDS_P2;PMS_P1;PMS_P2;Temp;Humidity;BMP_temperature;BMP_pressure;BME280_temperature;BME280_humidity;BME280_pressure;Samples;Min_cycle;Max_cycle;Signal;HPM_P1;HPM_P2
2022/11/24 00:01:29;;;;;;;0.20;0.10;;;;;;;;;;5000957;28;20129;-82
2022/11/24 00:03:56;;;;;;;0.20;0.20;;;;;;;;;;5017390;28;20065;-80
2022/11/24 00:06:23;;;;;;;0.20;0.10;;;;;;;;;;5014863;28;20052;-79
2022/11/24 00:08:49;;;;;;;0.20;0.10;;;;;;;;;;4994921;28;20439;-81
2022/11/24 00:11:16;;;;;;;0.20;0.10;;;;;;;;;;5017818;28;20099;-80
2022/11/24 00:13:43;;;;;;;0.20;0.10;;;;;;;;;;5015460;28;20610;-81
2022/11/24 00:16:16;;;;;;;0.30;0.20;;;;;;;;;;4993903;28;20125;-80
2022/11/24 00:18:43;;;;;;;0.20;0.10;;;;;;;;;;4995279;28;20072;-79
2022/11/24 00:21:10;;;;;;;0.20;0.10;;;;;;;;;;4990761;28;20096;-79
2022/11/24 00:23:36;;;;;;;0.20;0.10;;;;;;;;;;5011883;28;20037;-79
2022/11/24 00:26:07;;;;;;;0.20;0.10;;;;;;;;;;5014201;28;20092;-80
2022/11/24 00:28:33;;;;;;;0.20;0.10;;;;;;;;;;5015959;28;20046;-79
2022/11/24 00:31:00;;;;;;;0.20;0.10;;;;;;;;;;4993160;28;20049;-79
2022/11/24 00:33:26;;;;;;;0.25;0.25;;;;;;;;;;5015999;28;20125;-80
2022/11/24 00:35:58;;;;;;;0.20;0.10;;;;;;;;;;4996719;28;20096;-78
2022/11/24 00:38:24;;;;;;;;;;;;;;;;;;5018957;28;20041;-80
2022/11/24 00:40:50;;;;;;;0.20;0.10;;;;;;;;;;5012486;28;20332;-80
2022/11/24 00:43:17;;;;;;;0.20;0.10;;;;;;;;;;4995937;28;20571;-80
2022/11/24 00:45:43;;;;;;;0.20;0.10;;;;;;;;;;5011754;28;20064;-80
2022/11/24 00:48:09;;;;;;;0.20;0.10;;;;;;;;;;5008975;28;20073;-80
2022/11/24 00:50:35;;;;;;;0.40;0.35;;;;;;;;;;5010379;28;20049;-80
2022/11/24 00:53:01;;;;;;;0.20;0.10;;;;;;;;;;5010583;28;20041;-80
2022/11/24 00:55:27;;;;;;;0.20;0.10;;;;;;;;;;5017185;28;20139;-80
2022/11/24 00:57:53;;;;;;;0.20;0.20;;;;;;;;;;4996234;28;20138;-81
2022/11/24 01:00:19;;;;;;;0.20;0.10;;;;;;;;;;4995969;28;20121;-79
2022/11/24 01:02:45;;;;;;;0.20;0.10;;;;;;;;;;4995387;28;20041;-78
2022/11/24 01:05:11;;;;;;;0.20;0.10;;;;;;;;;;4995519;28;20101;-80
2022/11/24 01:07:37;;;;;;;0.20;0.10;;;;;;;;;;5015310;28;20046;-80
2022/11/24 01:10:04;;;;;;;0.20;0.10;;;;;;;;;;5016571;28;20133;-81
2022/11/24 01:12:31;;;;;;;0.20;0.15;;;;;;;;;;5013674;28;20034;-80
2022/11/24 01:14:57;;;;;;;0.20;0.10;;;;;;;;;;4995864;28;20671;-81
2022/11/24 01:17:23;;;;;;;0.20;0.10;;;;;;;;;;4994861;28;20037;-80
2022/11/24 01:19:50;;;;;;;0.75;0.75;;;;;;;;;;4995216;28;20708;-79
2022/11/24 01:22:16;;;;;;;0.20;0.10;;;;;;;;;;4998053;28;20034;-79
2022/11/24 01:24:42;;;;;;;0.20;0.10;;;;;;;;;;5026178;28;20384;-79
2022/11/24 01:27:08;;;;;;;0.20;0.10;;;;;;;;;;4992954;28;20076;-81
2022/11/24 01:29:34;;;;;;;6.07;0.35;;;;;;;;;;4995536;28;20096;-80
2022/11/24 01:32:00;;;;;;;0.20;0.10;;;;;;;;;;5009782;28;20040;-79
2022/11/24 01:34:27;;;;;;;0.20;0.10;;;;;;;;;;5011574;28;20103;-80
2022/11/24 01:36:53;;;;;;;0.20;0.10;;;;;;;;;;5010143;28;20524;-78
2022/11/24 01:39:19;;;;;;;0.20;0.10;;;;;;;;;;5010650;28;20073;-79
2022/11/24 01:41:45;;;;;;;0.20;0.10;;;;;;;;;;5006605;28;20041;-80
2022/11/24 01:44:41;;;;;;;0.20;0.10;;;;;;;;;;4995795;28;20152;-79
2022/11/24 01:47:26;;;;;;;0.20;0.10;;;;;;;;;;4983604;28;20169;-78
2022/11/24 01:49:53;;;;;;;0.20;0.10;;;;;;;;;;5010125;28;20050;-78
2022/11/24 01:52:41;;;;;;;0.20;0.10;;;;;;;;;;5005468;28;20033;-82
2022/11/24 01:55:19;;;;;;;0.20;0.10;;;;;;;;;;4990095;28;20038;-77
2022/11/24 01:57:48;;;;;;;0.20;0.10;;;;;;;;;;5005881;28;20143;-79
2022/11/24 02:00:14;;;;;;;0.20;0.10;;;;;;;;;;4988257;28;20380;-80
2022/11/24 02:02:41;;;;;;;0.20;0.10;;;;;;;;;;5009639;28;20091;-80
2022/11/24 02:05:13;;;;;;;0.70;0.70;;;;;;;;;;5005789;28;20048;-78
2022/11/24 02:07:39;;;;;;;0.20;0.10;;;;;;;;;;5008489;28;20041;-80
2022/11/24 02:10:13;;;;;;;0.20;0.10;;;;;;;;;;4991896;28;20064;-81
2022/11/24 02:12:40;;;;;;;0.20;0.10;;;;;;;;;;4992688;28;20033;-79
2022/11/24 02:15:07;;;;;;;0.52;0.52;;;;;;;;;;5013033;28;20085;-78
2022/11/24 02:17:33;;;;;;;0.20;0.10;;;;;;;;;;5012187;28;20065;-80
2022/11/24 02:20:01;;;;;;;0.20;0.10;;;;;;;;;;4993098;28;20038;-80
2022/11/24 02:22:43;;;;;;;0.20;0.20;;;;;;;;;;5012070;28;20038;-79
2022/11/24 02:25:16;;;;;;;0.30;0.30;;;;;;;;;;5006683;28;20045;-80
2022/11/24 02:27:43;;;;;;;0.20;0.10;;;;;;;;;;5025343;28;20052;-79
2022/11/24 02:30:10;;;;;;;0.20;0.10;;;;;;;;;;4992043;28;20045;-80
2022/11/24 02:32:36;;;;;;;0.20;0.10;;;;;;;;;;4989356;28;20060;-79
2022/11/24 02:35:04;;;;;;;0.20;0.10;;;;;;;;;;4992230;28;20046;-79
2022/11/24 02:37:30;;;;;;;0.20;0.10;;;;;;;;;;5008864;28;20581;-79
2022/11/24 02:39:56;;;;;;;0.20;0.10;;;;;;;;;;5009719;28;20528;-79
2022/11/24 02:42:23;;;;;;;0.20;0.10;;;;;;;;;;4997139;28;20042;-79
2022/11/24 02:44:54;;;;;;;0.25;0.25;;;;;;;;;;5012520;28;20042;-79
2022/11/24 02:47:20;;;;;;;0.20;0.10;;;;;;;;;;4998305;28;20042;-79
2022/11/24 02:49:46;;;;;;;0.20;0.10;;;;;;;;;;5015959;28;20693;-79
2022/11/24 02:52:12;;;;;;;0.20;0.03;;;;;;;;;;5015471;28;20407;-79
2022/11/24 02:54:38;;;;;;;0.20;0.10;;;;;;;;;;4995994;28;20492;-79
2022/11/24 02:57:04;;;;;;;0.20;0.10;;;;;;;;;;4996583;28;20499;-80
2022/11/24 02:59:30;;;;;;;0.20;0.10;;;;;;;;;;4997345;28;20091;-82
2022/11/24 03:01:56;;;;;;;0.20;0.10;;;;;;;;;;4991613;28;20072;-79
2022/11/24 03:04:22;;;;;;;0.20;0.10;;;;;;;;;;5012145;28;20044;-79
2022/11/24 03:06:48;;;;;;;0.20;0.10;;;;;;;;;;4996075;28;20061;-80
2022/11/24 03:09:14;;;;;;;0.20;0.10;;;;;;;;;;4996003;28;20037;-79
2022/11/24 03:11:40;;;;;;;0.55;0.20;;;;;;;;;;5020026;28;20037;-79
2022/11/24 03:14:07;;;;;;;0.20;0.10;;;;;;;;;;5013011;28;20030;-80
2022/11/24 03:16:33;;;;;;;0.20;0.10;;;;;;;;;;4996190;28;20034;-81
2022/11/24 03:18:59;;;;;;;0.28;0.25;;;;;;;;;;5015874;28;20517;-79
2022/11/24 03:21:25;;;;;;;0.20;0.10;;;;;;;;;;4995189;28;20041;-78
2022/11/24 03:23:52;;;;;;;0.20;0.10;;;;;;;;;;4996280;28;20034;-80
2022/11/24 03:26:19;;;;;;;0.20;0.10;;;;;;;;;;5012317;28;20072;-79
2022/11/24 03:28:45;;;;;;;0.20;0.10;;;;;;;;;;5016157;28;20048;-80
2022/11/24 03:31:11;;;;;;;0.20;0.10;;;;;;;;;;5017367;28;20037;-79
2022/11/24 03:33:37;;;;;;;0.20;0.10;;;;;;;;;;5015752;28;20124;-80
2022/11/24 03:36:04;;;;;;;0.20;0.10;;;;;;;;;;5015293;28;21790;-79
2022/11/24 03:38:30;;;;;;;0.20;0.10;;;;;;;;;;4997254;28;20026;-79
2022/11/24 03:40:56;;;;;;;0.20;0.10;;;;;;;;;;5008915;28;20631;-78
2022/11/24 03:43:22;;;;;;;0.20;0.10;;;;;;;;;;5019917;28;20522;-82
2022/11/24 03:45:49;;;;;;;0.20;0.10;;;;;;;;;;5023182;28;20034;-79
2022/11/24 03:48:16;;;;;;;0.20;0.10;;;;;;;;;;5026765;28;20100;-80
2022/11/24 03:50:42;;;;;;;0.20;0.10;;;;;;;;;;5023744;28;20049;-81
2022/11/24 03:53:08;;;;;;;2.13;0.15;;;;;;;;;;5022614;28;22013;-79
2022/11/24 03:55:35;;;;;;;0.20;0.10;;;;;;;;;;5022212;28;20041;-80
2022/11/24 03:58:01;;;;;;;0.20;0.10;;;;;;;;;;5007028;28;20052;-82
2022/11/24 04:00:28;;;;;;;0.20;0.10;;;;;;;;;;5013102;28;20045;-79
2022/11/24 04:02:54;;;;;;;0.20;0.10;;;;;;;;;;5033668;28;20038;-79
2022/11/24 04:05:20;;;;;;;0.30;0.30;;;;;;;;;;5020673;28;20048;-79
2022/11/24 04:07:46;;;;;;;0.20;0.10;;;;;;;;;;4995131;28;20081;-79
2022/11/24 04:10:12;;;;;;;0.20;0.10;;;;;;;;;;5014151;28;20046;-80
2022/11/24 04:12:44;;;;;;;0.20;0.10;;;;;;;;;;4998106;28;20038;-78
2022/11/24 04:15:14;;;;;;;0.20;0.10;;;;;;;;;;5015045;28;20033;-79
2022/11/24 04:17:40;;;;;;;0.20;0.10;;;;;;;;;;5029172;28;20038;-79
2022/11/24 04:20:07;;;;;;;0.20;0.10;;;;;;;;;;5035803;28;20069;-80
2022/11/24 04:22:34;;;;;;;0.20;0.10;;;;;;;;;;5014679;28;20388;-79
2022/11/24 04:25:00;;;;;;;0.20;0.10;;;;;;;;;;4996086;28;20496;-79
2022/11/24 04:27:26;;;;;;;0.20;0.10;;;;;;;;;;5011460;28;20623;-79
2022/11/24 04:29:52;;;;;;;0.20;0.10;;;;;;;;;;5031029;28;20385;-79
2022/11/24 04:32:18;;;;;;;0.20;0.10;;;;;;;;;;5012304;28;20524;-79
2022/11/24 04:34:44;;;;;;;0.30;0.22;;;;;;;;;;5019447;28;20042;-79
2022/11/24 04:37:10;;;;;;;0.20;0.10;;;;;;;;;;5015425;28;20496;-79
2022/11/24 04:39:36;;;;;;;0.20;0.10;;;;;;;;;;5013388;28;20034;-78
2022/11/24 04:42:02;;;;;;;0.20;0.00;;;;;;;;;;5001013;28;20037;-78
2022/11/24 04:44:28;;;;;;;0.20;0.15;;;;;;;;;;4994699;28;20073;-80
2022/11/24 04:46:54;;;;;;;0.20;0.10;;;;;;;;;;5031895;28;20250;-79
2022/11/24 04:49:20;;;;;;;0.20;0.10;;;;;;;;;;5011070;28;20044;-80
2022/11/24 04:51:46;;;;;;;0.20;0.10;;;;;;;;;;5014268;28;20092;-79
2022/11/24 04:54:13;;;;;;;0.20;0.10;;;;;;;;;;5008431;28;20113;-79
2022/11/24 04:56:42;;;;;;;0.20;0.10;;;;;;;;;;5005158;28;20435;-79
2022/11/24 04:59:13;;;;;;;0.20;0.10;;;;;;;;;;5016024;28;20079;-80
2022/11/24 05:01:39;;;;;;;0.20;0.10;;;;;;;;;;5010157;28;20081;-79
2022/11/24 05:04:05;;;;;;;0.20;0.10;;;;;;;;;;4995381;28;20073;-79
2022/11/24 05:06:32;;;;;;;0.20;0.10;;;;;;;;;;4992402;28;20042;-79
2022/11/24 05:08:58;;;;;;;0.20;0.10;;;;;;;;;;4979372;28;20043;-80
2022/11/24 05:11:24;;;;;;;0.20;0.10;;;;;;;;;;5021833;28;20544;-79
2022/11/24 05:13:52;;;;;;;0.20;0.10;;;;;;;;;;4997279;28;20042;-79
2022/11/24 05:16:18;;;;;;;0.20;0.10;;;;;;;;;;5011754;28;20488;-79
2022/11/24 05:18:44;;;;;;;0.20;0.10;;;;;;;;;;4996237;28;20038;-79
2022/11/24 05:21:10;;;;;;;0.20;0.10;;;;;;;;;;5016331;28;20046;-79
2022/11/24 05:23:36;;;;;;;0.20;0.10;;;;;;;;;;4993261;23;20097;-77
2022/11/24 05:26:02;;;;;;;0.20;0.10;;;;;;;;;;4995901;28;20034;-76
2022/11/24 05:28:29;;;;;;;0.20;0.10;;;;;;;;;;5022390;28;20041;-77
2022/11/24 05:30:58;;;;;;;3.20;1.55;;;;;;;;;;5007651;28;20034;-77
2022/11/24 05:33:25;;;;;;;0.20;0.10;;;;;;;;;;5000916;28;20042;-77
2022/11/24 05:35:52;;;;;;;3.50;0.45;;;;;;;;;;5008873;28;20049;-77
2022/11/24 05:38:18;;;;;;;0.20;0.10;;;;;;;;;;5007892;28;20686;-77
2022/11/24 05:40:44;;;;;;;0.20;0.10;;;;;;;;;;5004769;28;20491;-77
2022/11/24 05:43:11;;;;;;;0.20;0.10;;;;;;;;;;5003686;28;20065;-77
2022/11/24 05:45:37;;;;;;;0.20;0.10;;;;;;;;;;5002727;28;20072;-77
2022/11/24 05:48:05;;;;;;;0.30;0.30;;;;;;;;;;5000680;28;20045;-77
2022/11/24 05:50:31;;;;;;;0.20;0.10;;;;;;;;;;5004602;28;20400;-76
2022/11/24 05:53:01;;;;;;;0.20;0.10;;;;;;;;;;5000321;28;20048;-76
2022/11/24 05:55:27;;;;;;;0.20;0.10;;;;;;;;;;4977288;28;20583;-77
2022/11/24 05:57:58;;;;;;;0.20;0.10;;;;;;;;;;4984198;28;20057;-77
2022/11/24 06:00:24;;;;;;;0.20;0.10;;;;;;;;;;5000110;28;21841;-77
2022/11/24 06:02:50;;;;;;;0.20;0.10;;;;;;;;;;4998983;28;20046;-77
2022/11/24 06:05:16;;;;;;;0.30;0.20;;;;;;;;;;4984035;28;20049;-77
2022/11/24 06:07:42;;;;;;;0.20;0.10;;;;;;;;;;5006458;28;20385;-77
2022/11/24 06:10:09;;;;;;;0.20;0.10;;;;;;;;;;4984009;28;20080;-77
2022/11/24 06:12:35;;;;;;;0.20;0.10;;;;;;;;;;4981392;28;20038;-77
2022/11/24 06:15:01;;;;;;;0.20;0.10;;;;;;;;;;4998257;28;20175;-76
2022/11/24 06:17:27;;;;;;;0.20;0.10;;;;;;;;;;5000956;28;20124;-77
2022/11/24 06:19:53;;;;;;;0.20;0.10;;;;;;;;;;4999374;28;20037;-77
2022/11/24 06:22:19;;;;;;;0.20;0.10;;;;;;;;;;5009038;28;20099;-77
2022/11/24 06:24:46;;;;;;;0.20;0.10;;;;;;;;;;4984680;28;20037;-77
2022/11/24 06:27:12;;;;;;;0.20;0.10;;;;;;;;;;4976891;28;20045;-78
2022/11/24 06:29:38;;;;;;;0.20;0.10;;;;;;;;;;4983418;28;20411;-78
2022/11/24 06:32:04;;;;;;;0.20;0.10;;;;;;;;;;5003379;28;20519;-78
2022/11/24 06:34:31;;;;;;;0.20;0.10;;;;;;;;;;4970648;28;20041;-78
2022/11/24 06:36:57;;;;;;;0.20;0.10;;;;;;;;;;5002875;28;20034;-78
2022/11/24 06:39:23;;;;;;;0.20;0.10;;;;;;;;;;5004083;28;20041;-78
2022/11/24 06:41:49;;;;;;;0.20;0.10;;;;;;;;;;4983522;28;20042;-78
2022/11/24 06:44:15;;;;;;;0.20;0.10;;;;;;;;;;5006371;28;20515;-78
2022/11/24 06:46:41;;;;;;;0.20;0.10;;;;;;;;;;5006442;28;20415;-78
2022/11/24 06:49:07;;;;;;;0.20;0.10;;;;;;;;;;4980651;28;20396;-78
2022/11/24 06:51:33;;;;;;;0.20;0.10;;;;;;;;;;4989940;28;20081;-78
2022/11/24 06:54:00;;;;;;;0.20;0.10;;;;;;;;;;5008562;28;20042;-77
2022/11/24 06:56:26;;;;;;;0.20;0.10;;;;;;;;;;4972888;28;20047;-77
2022/11/24 06:58:53;;;;;;;0.20;0.10;;;;;;;;;;4981870;28;20044;-77
2022/11/24 07:01:21;;;;;;;0.20;0.10;;;;;;;;;;4997665;28;20045;-76
2022/11/24 07:03:47;;;;;;;0.20;0.10;;;;;;;;;;4997547;28;20403;-76
2022/11/24 07:06:13;;;;;;;0.20;0.10;;;;;;;;;;4999830;28;20069;-76
2022/11/24 07:08:39;;;;;;;0.20;0.10;;;;;;;;;;4983548;28;20052;-77
2022/11/24 07:11:06;;;;;;;0.20;0.10;;;;;;;;;;5002511;28;20403;-76
2022/11/24 07:13:33;;;;;;;0.20;0.10;;;;;;;;;;4999418;28;20038;-76
2022/11/24 07:15:59;;;;;;;0.20;0.10;;;;;;;;;;4998823;28;20171;-76
2022/11/24 07:18:25;;;;;;;0.20;0.10;;;;;;;;;;5002802;28;20045;-76
2022/11/24 07:20:51;;;;;;;0.20;0.10;;;;;;;;;;4978546;28;20096;-76
2022/11/24 07:23:17;;;;;;;0.20;0.10;;;;;;;;;;4988485;28;20492;-75
2022/11/24 07:25:43;;;;;;;0.20;0.10;;;;;;;;;;5008101;28;20049;-75
2022/11/24 07:28:09;;;;;;;0.20;0.10;;;;;;;;;;4990537;28;20472;-76
2022/11/24 07:30:35;;;;;;;0.20;0.10;;;;;;;;;;4991562;28;20387;-76
2022/11/24 07:33:02;;;;;;;0.20;0.10;;;;;;;;;;4989568;28;20550;-76
2022/11/24 07:35:28;;;;;;;0.20;0.10;;;;;;;;;;5008015;28;20088;-76
2022/11/24 07:37:55;;;;;;;0.20;0.10;;;;;;;;;;5010911;28;20072;-77
2022/11/24 07:40:21;;;;;;;0.20;0.10;;;;;;;;;;4974636;28;20102;-76
2022/11/24 07:42:47;;;;;;;0.20;0.10;;;;;;;;;;4981860;28;20030;-77
2022/11/24 07:45:13;;;;;;;0.20;0.10;;;;;;;;;;4997137;28;20046;-77
2022/11/24 07:47:40;;;;;;;0.20;0.10;;;;;;;;;;5012091;28;20045;-77
2022/11/24 07:50:08;;;;;;;0.20;0.10;;;;;;;;;;5011716;28;20054;-76
2022/11/24 07:52:34;;;;;;;0.20;0.10;;;;;;;;;;4990858;28;20096;-76
2022/11/24 07:55:00;;;;;;;0.20;0.10;;;;;;;;;;5009077;28;20104;-76
2022/11/24 07:57:27;;;;;;;0.20;0.10;;;;;;;;;;4990513;28;20034;-77
2022/11/24 07:59:54;;;;;;;0.20;0.10;;;;;;;;;;5009681;28;20050;-76
2022/11/24 08:02:20;;;;;;;0.20;0.20;;;;;;;;;;5005991;28;20559;-76
2022/11/24 08:04:46;;;;;;;0.20;0.10;;;;;;;;;;4999547;28;20064;-76
2022/11/24 08:07:12;;;;;;;0.20;0.10;;;;;;;;;;5007049;28;20041;-76
2022/11/24 08:09:38;;;;;;;0.20;0.10;;;;;;;;;;5006553;28;20103;-76
2022/11/24 08:12:04;;;;;;;0.20;0.10;;;;;;;;;;4998724;28;20049;-76
2022/11/24 08:14:30;;;;;;;0.20;0.10;;;;;;;;;;4988642;28;20143;-76
2022/11/24 08:16:57;;;;;;;0.20;0.10;;;;;;;;;;5006135;28;20220;-76
2022/11/24 08:19:23;;;;;;;0.20;0.10;;;;;;;;;;4999386;28;20030;-76
2022/11/24 08:21:49;;;;;;;0.20;0.10;;;;;;;;;;4994858;28;20034;-76
2022/11/24 08:24:16;;;;;;;0.20;0.10;;;;;;;;;;5007506;28;20456;-77
2022/11/24 08:26:42;;;;;;;0.20;0.10;;;;;;;;;;5010734;28;20058;-78
2022/11/24 08:29:08;;;;;;;0.20;0.10;;;;;;;;;;4988221;28;20642;-77
2022/11/24 08:31:35;;;;;;;0.20;0.10;;;;;;;;;;5010156;28;20496;-78
2022/11/24 08:34:02;;;;;;;0.20;0.10;;;;;;;;;;5019487;28;20037;-78
2022/11/24 08:36:28;;;;;;;0.20;0.10;;;;;;;;;;5009290;28;20171;-78
2022/11/24 08:38:55;;;;;;;0.20;0.10;;;;;;;;;;5013173;28;20048;-77
2022/11/24 08:41:21;;;;;;;0.20;0.10;;;;;;;;;;4995654;28;20033;-78
2022/11/24 08:43:48;;;;;;;0.20;0.10;;;;;;;;;;4996184;28;20124;-78
2022/11/24 08:46:18;;;;;;;0.20;0.10;;;;;;;;;;5016564;28;20049;-77
2022/11/24 08:48:48;;;;;;;0.20;0.10;;;;;;;;;;5012383;28;20072;-78
2022/11/24 08:51:16;;;;;;;0.20;0.10;;;;;;;;;;4996632;28;20042;-78
2022/11/24 08:53:43;;;;;;;0.20;0.10;;;;;;;;;;5009854;28;20076;-77
2022/11/24 08:56:10;;;;;;;0.20;0.10;;;;;;;;;;4973492;28;20037;-78
2022/11/24 08:58:36;;;;;;;0.20;0.10;;;;;;;;;;5009047;28;20547;-75
2022/11/24 09:01:05;;;;;;;0.20;0.10;;;;;;;;;;4991783;28;20037;-74
2022/11/24 09:03:31;;;;;;;0.20;0.10;;;;;;;;;;5008514;28;20069;-75
2022/11/24 09:05:57;;;;;;;0.20;0.10;;;;;;;;;;5005345;28;20042;-76
2022/11/24 09:08:23;;;;;;;0.20;0.10;;;;;;;;;;5006497;28;20088;-75
2022/11/24 09:10:50;;;;;;;0.20;0.10;;;;;;;;;;5009111;28;20061;-75
2022/11/24 09:13:16;;;;;;;0.20;0.10;;;;;;;;;;5005330;28;20044;-76
2022/11/24 09:15:42;;;;;;;0.20;0.10;;;;;;;;;;5005217;28;20041;-75
2022/11/24 09:18:08;;;;;;;0.25;0.13;;;;;;;;;;5006944;28;20042;-76
2022/11/24 09:20:34;;;;;;;0.20;0.10;;;;;;;;;;5006567;28;20042;-76
2022/11/24 09:23:00;;;;;;;0.20;0.10;;;;;;;;;;5007771;28;20041;-76
2022/11/24 09:25:26;;;;;;;0.20;0.10;;;;;;;;;;4980144;28;20072;-76
2022/11/24 09:27:53;;;;;;;0.20;0.10;;;;;;;;;;4990140;28;20052;-76
2022/11/24 09:30:19;;;;;;;0.20;0.10;;;;;;;;;;5006789;28;20034;-76
2022/11/24 09:32:45;;;;;;;0.20;0.10;;;;;;;;;;5007114;28;20041;-75
2022/11/24 09:35:11;;;;;;;0.50;0.50;;;;;;;;;;5004778;28;20076;-76
2022/11/24 09:37:37;;;;;;;0.20;0.10;;;;;;;;;;4985750;28;20034;-76
2022/11/24 09:40:04;;;;;;;0.20;0.10;;;;;;;;;;5007037;28;20107;-76
2022/11/24 09:42:33;;;;;;;0.20;0.10;;;;;;;;;;5006663;28;20326;-76
2022/11/24 09:45:11;;;;;;;0.20;0.10;;;;;;;;;;4997935;28;20052;-75
2022/11/24 09:47:53;;;;;;;0.20;0.10;;;;;;;;;;5007924;28;20176;-75
2022/11/24 09:50:21;;;;;;;0.35;0.20;;;;;;;;;;5006676;28;20085;-76
2022/11/24 09:52:51;;;;;;;0.20;0.10;;;;;;;;;;4979427;28;20182;-75
2022/11/24 09:55:35;;;;;;;0.20;0.10;;;;;;;;;;5007138;28;20038;-75
2022/11/24 09:58:11;;;;;;;0.20;0.10;;;;;;;;;;5004096;28;20068;-75
2022/11/24 10:00:37;;;;;;;0.20;0.10;;;;;;;;;;5007810;28;20046;-78
2022/11/24 10:03:03;;;;;;;0.20;0.10;;;;;;;;;;4981373;28;20046;-78
2022/11/24 10:05:32;;;;;;;0.20;0.10;;;;;;;;;;4991823;28;20037;-77
2022/11/24 10:07:58;;;;;;;0.20;0.10;;;;;;;;;;5007002;28;20041;-78
2022/11/24 10:10:28;;;;;;;0.20;0.10;;;;;;;;;;4984027;28;20041;-78
2022/11/24 10:13:13;;;;;;;0.20;0.10;;;;;;;;;;4980197;28;20046;-77
2022/11/24 10:15:39;;;;;;;0.20;0.10;;;;;;;;;;5008094;28;20044;-77
2022/11/24 10:18:08;;;;;;;0.20;0.10;;;;;;;;;;5010074;28;20407;-78
2022/11/24 10:21:00;;;;;;;0.20;0.10;;;;;;;;;;5014441;28;20033;-77
2022/11/24 10:23:26;;;;;;;0.20;0.10;;;;;;;;;;4991524;28;20041;-78
2022/11/24 10:25:55;;;;;;;0.20;0.10;;;;;;;;;;5005470;28;20124;-77
2022/11/24 10:28:21;;;;;;;0.20;0.10;;;;;;;;;;4992518;28;20041;-77
2022/11/24 10:30:49;;;;;;;0.20;0.10;;;;;;;;;;4993421;28;20043;-77
2022/11/24 10:33:19;;;;;;;0.20;0.10;;;;;;;;;;5010061;28;20053;-77
2022/11/24 10:35:51;;;;;;;0.20;0.10;;;;;;;;;;5009498;28;20461;-78
2022/11/24 10:38:20;;;;;;;0.20;0.10;;;;;;;;;;5008665;28;20476;-77
2022/11/24 10:41:15;;;;;;;0.47;0.47;;;;;;;;;;4986286;28;20440;-78
2022/11/24 10:43:42;;;;;;;0.20;0.10;;;;;;;;;;4955600;28;20600;-77
2022/11/24 10:46:11;;;;;;;0.20;0.10;;;;;;;;;;5009835;28;20033;-77
2022/11/24 10:48:40;;;;;;;0.20;0.10;;;;;;;;;;5008823;28;20531;-77
2022/11/24 10:51:25;;;;;;;0.47;0.22;;;;;;;;;;5006579;28;20101;-77
2022/11/24 10:53:54;;;;;;;0.20;0.10;;;;;;;;;;5005784;28;20046;-77
2022/11/24 10:56:20;;;;;;;0.20;0.10;;;;;;;;;;5018051;28;20062;-78
2022/11/24 10:58:46;;;;;;;0.20;0.10;;;;;;;;;;4993693;28;20572;-77
2022/11/24 11:01:12;;;;;;;0.20;0.10;;;;;;;;;;5032623;28;20396;-77
2022/11/24 11:03:46;;;;;;;0.20;0.10;;;;;;;;;;5013242;28;20072;-77
2022/11/24 11:06:23;;;;;;;0.20;0.10;;;;;;;;;;5009760;28;20045;-77
2022/11/24 11:08:49;;;;;;;0.20;0.10;;;;;;;;;;5011559;28;20077;-77
2022/11/24 11:11:19;;;;;;;0.20;0.10;;;;;;;;;;5013401;28;20062;-77
2022/11/24 11:14:18;;;;;;;0.20;0.10;;;;;;;;;;5012679;28;20045;-77
2022/11/24 11:16:51;;;;;;;0.20;0.10;;;;;;;;;;4975698;28;20049;-78
2022/11/24 11:19:37;;;;;;;0.20;0.10;;;;;;;;;;5012786;28;20053;-77
2022/11/24 11:22:04;;;;;;;0.20;0.10;;;;;;;;;;5012961;28;20614;-77
2022/11/24 11:24:30;;;;;;;0.20;0.10;;;;;;;;;;5022744;22;20057;-80
2022/11/24 11:27:01;;;;;;;0.20;0.10;;;;;;;;;;4988906;28;20067;-78
2022/11/24 11:29:28;;;;;;;0.20;0.10;;;;;;;;;;4991074;28;20049;-79
2022/11/24 11:31:59;;;;;;;0.20;0.10;;;;;;;;;;4991709;28;20045;-77
2022/11/24 11:34:25;;;;;;;0.20;0.10;;;;;;;;;;4990699;28;20038;-80
2022/11/24 11:36:53;;;;;;;0.20;0.10;;;;;;;;;;4974976;28;20636;-80
2022/11/24 11:39:30;;;;;;;0.20;0.10;;;;;;;;;;4990270;28;20239;-81
2022/11/24 11:42:17;;;;;;;0.20;0.10;;;;;;;;;;4974908;28;20507;-80
2022/11/24 11:45:02;;;;;;;0.20;0.10;;;;;;;;;;4967375;28;20052;-80
2022/11/24 11:47:35;;;;;;;0.20;0.10;;;;;;;;;;4987546;28;20026;-79
2022/11/24 11:50:01;;;;;;;0.20;0.10;;;;;;;;;;4991175;28;20038;-78
2022/11/24 11:52:30;;;;;;;0.20;0.10;;;;;;;;;;4974600;28;20045;-79
2022/11/24 11:55:00;;;;;;;0.20;0.10;;;;;;;;;;4989562;28;20050;-79
2022/11/24 11:57:32;;;;;;;0.20;0.10;;;;;;;;;;4986365;28;20058;-80
2022/11/24 12:00:11;;;;;;;0.20;0.10;;;;;;;;;;4987921;28;20108;-80
2022/11/24 12:02:49;;;;;;;0.20;0.10;;;;;;;;;;4989418;28;20140;-80
2022/11/24 12:05:15;;;;;;;0.20;0.10;;;;;;;;;;4988112;28;20038;-80
2022/11/24 12:07:45;;;;;;;0.20;0.10;;;;;;;;;;4974806;28;20069;-80
2022/11/24 12:10:14;;;;;;;0.20;0.10;;;;;;;;;;4987154;28;20039;-81
2022/11/24 12:12:51;;;;;;;0.20;0.10;;;;;;;;;;4991946;28;20181;-79
2022/11/24 12:15:22;;;;;;;0.20;0.10;;;;;;;;;;4990394;28;20042;-78
2022/11/24 12:17:51;;;;;;;0.20;0.10;;;;;;;;;;4987744;28;20509;-80
2022/11/24 12:20:20;;;;;;;0.20;0.10;;;;;;;;;;4971236;28;20042;-80
2022/11/24 12:23:18;;;;;;;0.20;0.10;;;;;;;;;;4986328;28;20505;-78
2022/11/24 12:26:00;;;;;;;0.20;0.10;;;;;;;;;;4964730;28;20058;-81
2022/11/24 12:28:38;;;;;;;0.20;0.10;;;;;;;;;;4986987;28;20045;-80
2022/11/24 12:31:05;;;;;;;0.20;0.10;;;;;;;;;;4990281;28;20048;-79
2022/11/24 12:33:54;;;;;;;0.20;0.10;;;;;;;;;;4972932;28;20094;-79
2022/11/24 12:36:30;;;;;;;0.68;0.63;;;;;;;;;;4982619;28;20031;-79
2022/11/24 12:39:05;;;;;;;0.20;0.10;;;;;;;;;;4986382;28;20039;-79
2022/11/24 12:41:50;;;;;;;0.30;0.20;;;;;;;;;;4982105;28;20034;-81
2022/11/24 12:44:19;;;;;;;0.20;0.10;;;;;;;;;;4985397;28;20130;-79
2022/11/24 12:46:45;;;;;;;0.20;0.10;;;;;;;;;;4986446;28;20512;-79
2022/11/24 12:49:24;;;;;;;0.20;0.20;;;;;;;;;;4969858;28;20042;-79
2022/11/24 12:52:05;;;;;;;0.20;0.10;;;;;;;;;;4987316;28;20436;-80
2022/11/24 12:54:36;;;;;;;0.20;0.10;;;;;;;;;;4984002;28;20121;-80
2022/11/24 12:57:05;;;;;;;0.20;0.10;;;;;;;;;;4974018;28;20042;-81
2022/11/24 12:59:51;;;;;;;0.20;0.10;;;;;;;;;;4985823;28;20034;-80
2022/11/24 13:02:40;;;;;;;0.30;0.30;;;;;;;;;;4986699;28;20046;-80
2022/11/24 13:05:27;;;;;;;0.20;0.10;;;;;;;;;;4980133;28;20084;-80
2022/11/24 13:07:57;;;;;;;6.32;0.57;;;;;;;;;;4985934;28;20385;-81
2022/11/24 13:10:23;;;;;;;0.20;0.10;;;;;;;;;;4982355;28;20570;-80
2022/11/24 13:13:09;;;;;;;0.20;0.10;;;;;;;;;;4967903;28;20042;-79
2022/11/24 13:16:02;;;;;;;0.20;0.10;;;;;;;;;;4982938;28;20057;-80
2022/11/24 13:18:48;;;;;;;1.13;0.20;;;;;;;;;;4980699;28;20050;-80
2022/11/24 13:21:32;;;;;;;0.20;0.17;;;;;;;;;;4974952;28;20173;-80
2022/11/24 13:23:58;;;;;;;0.20;0.10;;;;;;;;;;4985187;28;20273;-80
2022/11/24 13:26:29;;;;;;;0.20;0.10;;;;;;;;;;4966253;28;20171;-79
2022/11/24 13:29:03;;;;;;;0.20;0.10;;;;;;;;;;4980675;28;20197;-79
2022/11/24 13:31:29;;;;;;;0.68;0.40;;;;;;;;;;4981676;28;20077;-80
2022/11/24 13:33:56;;;;;;;0.20;0.10;;;;;;;;;;4967504;28;20038;-81
2022/11/24 13:36:22;;;;;;;0.20;0.10;;;;;;;;;;4983574;28;20129;-81
2022/11/24 13:38:48;;;;;;;0.20;0.10;;;;;;;;;;4961618;28;20193;-81
2022/11/24 13:41:34;;;;;;;0.28;0.13;;;;;;;;;;4984563;28;20518;-79
2022/11/24 13:44:15;;;;;;;0.20;0.10;;;;;;;;;;4969871;28;20070;-80
2022/11/24 13:47:00;;;;;;;0.20;0.10;;;;;;;;;;4964444;28;20497;-79
2022/11/24 13:49:45;;;;;;;0.20;0.10;;;;;;;;;;4969144;28;20039;-79
2022/11/24 13:52:30;;;;;;;0.20;0.10;;;;;;;;;;4955880;28;20106;-81
2022/11/24 13:54:56;;;;;;;0.20;0.10;;;;;;;;;;4979262;28;20043;-81
2022/11/24 13:57:37;;;;;;;0.20;0.10;;;;;;;;;;4985128;28;20057;-79
2022/11/24 14:00:04;;;;;;;0.25;0.15;;;;;;;;;;4970248;28;20242;-81
2022/11/24 14:02:33;;;;;;;0.20;0.10;;;;;;;;;;4986837;28;20046;-78
2022/11/24 14:04:59;;;;;;;0.35;0.35;;;;;;;;;;4989762;28;20173;-78
2022/11/24 14:07:25;;;;;;;0.20;0.10;;;;;;;;;;4973833;28;20046;-81
2022/11/24 14:09:52;;;;;;;5.78;0.30;;;;;;;;;;4990849;28;20081;-80
2022/11/24 14:12:19;;;;;;;0.20;0.10;;;;;;;;;;4973750;28;20070;-79
2022/11/24 14:14:46;;;;;;;0.20;0.03;;;;;;;;;;4971024;28;20086;-82
2022/11/24 14:17:18;;;;;;;0.20;0.10;;;;;;;;;;4985441;28;20093;-81
2022/11/24 14:19:52;;;;;;;0.20;0.10;;;;;;;;;;4991829;28;20038;-82
2022/11/24 14:22:39;;;;;;;0.20;0.20;;;;;;;;;;4986530;28;20046;-81
2022/11/24 14:25:06;;;;;;;0.20;0.00;;;;;;;;;;4965600;28;20080;-81
2022/11/24 14:27:35;;;;;;;0.20;0.10;;;;;;;;;;4984886;28;20108;-78
2022/11/24 14:30:07;;;;;;;0.20;0.10;;;;;;;;;;4982283;28;20048;-79
2022/11/24 14:32:33;;;;;;;0.20;0.10;;;;;;;;;;4983656;28;20265;-79
2022/11/24 14:35:00;;;;;;;0.20;0.10;;;;;;;;;;4955486;28;20038;-82
2022/11/24 14:37:26;;;;;;;0.20;0.10;;;;;;;;;;4968827;28;20086;-79
2022/11/24 14:39:52;;;;;;;0.20;0.10;;;;;;;;;;4970061;28;20047;-80
2022/11/24 14:42:18;;;;;;;0.20;0.10;;;;;;;;;;4987058;28;20118;-80
2022/11/24 14:44:47;;;;;;;0.20;0.10;;;;;;;;;;4982756;28;20113;-79
2022/11/24 14:47:18;;;;;;;0.20;0.10;;;;;;;;;;4986928;28;20250;-79
2022/11/24 14:49:44;;;;;;;0.20;0.10;;;;;;;;;;4983953;28;20046;-79
2022/11/24 14:52:15;;;;;;;0.20;0.10;;;;;;;;;;4969528;28;20101;-78
2022/11/24 14:54:53;;;;;;;0.20;0.10;;;;;;;;;;4968323;28;20045;-79